Terminal Aerodrome Forecast
Issued by NWS

Current Version | Previous Version | Text Only | Print | Product List | Glossary On
Versions: 1 2 3 4 5 6 7 8 9 10 11 12 13 14 15 16 17 18 19 20 21 22 23 24 25 26 27 28 29 30 31 32 33 34 35 36
150
FTUS41 KOKX 241441 AAB
TAFSWF
TAF AMD
KSWF 241441Z 2415/2518 29010KT P6SM FEW025 SCT080
     FM241700 32007KT 6SM -SHRA SCT025 BKN050
     FM241900 35006KT 4SM -RA BR SCT020 OVC045
     FM250000 00000KT 6SM -RA SCT020 OVC035
     FM250700 VRB04KT 5SM RA SCT015 OVC025
     FM251400 10009KT 3SM RA OVC007
     FM251700 10005KT 2SM RA OVC007
      AMD NOT SKED=

USA.gov is the U.S. government's official web portal to all federal, state and local government web resources and services.